메인 페이지
METAR-TAF:

METAR-TAF

공항 :

Edmonton/Villeneuve Airport

Villeneuve, 앨버타, 캐나다

위도: 53-40-06N, 경도: 113-51-08W, 고도: 688m

현재 날씨관측

예보는 34분 전, 10:00시(UTC)에 발표되었습니다.
서북서7kt
온도 -27°C
습도 69%
기압 1031 hPa
시정: 14.5km
맑음

METAR: CZVL 181000Z AUTO 29007KT 9SM CLR M27/M31 A3045 RMK SLP394

시각: 03:34 (10:34 UTC)

예보

예보는 1 시간 50분 전, 08:44시(UTC)에 발표되었습니다.
예보 대상 시간: 18일 08시부터 18일 18시까지 (UTC)
서북서10kt
시정: 10km
고도 6000ft 상공 구름 보통
일시적
18일 08시부터 18일 12시까지 (UTC)
고도 2000ft 상공 구름 조금
고도 6000ft 상공 구름 많음
18일 1200시부터 (UTC)
6kt
시정: 10km
고도 6000ft 상공 구름 조금
고도 24000ft 상공 구름 보통
일시적
18일 15시부터 18일 18시까지 (UTC)
시정: 6.4km
빙정
전환 중
18일 16시부터 18일 18시까지 (UTC)
여러 방향의 바람 3kt

TAF: CZVL 180844Z 1808/1818 30010KT P6SM SCT060 TEMPO 1808/1812 FEW020 BKN060 FM181200 28006KT P6SM FEW060 SCT240 TEMPO 1815/1818 4SM IC BECMG 1816/1818 VRB03KT RMK FCST BASED ON AUTO OBS. NXT FCST BY 181200Z

4,000개 이상의 공항 관측 자료 및 예보 (METAR 및 TAF 보고).

지도상에서 검색 가능한 기상관측소가 노란 점과 빨간 점으로 표시되어 있습니다.

기상관측소 명을 보려면 표시 위로 마우스를 이동하세요.

날씨 관측과 예보를 보려면 클릭하세요.

지도 변경 : 확대하려면 엑스 표시가 있는 녹색 버튼, 축소하려면 빼기 표시가 있는 녹색 버튼, 다음 페이지의 지도를 보려면 녹색 화살표를 클릭하세요.


METAR-TAF: